HNL weather

Daniel K Inouye International Airport
Honolulu, Hawaii, United States

Public forecast

Using degrees Fahrenheit for public forecast. Weather courtesy of forecast.io.

METAR (pilot weather report)

Retrieved 2018/04/26 19:53 UTC (33 minutes ago):

PHNL 261953Z 06009G18KT 10SM FEW025 SCT035 SCT200 27/19 A3008

TAF (pilot weather forecast)

Retrieved 2018/04/26 18:54 UTC (2 hours ago):

TAF PHNL 261751Z 2618/2724 06008KT P6SM SCT025 SCT045 FM262000 07012KT P6SM SCT025 BKN045 FM270600 07006KT P6SM FEW025 SCT045 FM272100 22008KT P6SM SCT025 BKN045